sensor_id;sensor_type;location;lat;lon;timestamp;P1;durP1;ratioP1;P2;durP2;ratioP2
12838;SDS011;6486;51.034;5.262;2023-08-12T00:01:48;1.23;;;1.00;;
12838;SDS011;6486;51.034;5.262;2023-08-12T00:04:14;4.37;;;1.13;;
12838;SDS011;6486;51.034;5.262;2023-08-12T00:06:41;1.47;;;0.87;;
12838;SDS011;6486;51.034;5.262;2023-08-12T00:09:07;1.27;;;1.00;;
12838;SDS011;6486;51.034;5.262;2023-08-12T00:11:34;1.47;;;1.37;;
12838;SDS011;6486;51.034;5.262;2023-08-12T00:14:00;1.47;;;1.10;;
12838;SDS011;6486;51.034;5.262;2023-08-12T00:16:26;2.80;;;1.67;;
12838;SDS011;6486;51.034;5.262;2023-08-12T00:18:53;2.17;;;1.97;;
12838;SDS011;6486;51.034;5.262;2023-08-12T00:21:19;2.83;;;1.03;;
12838;SDS011;6486;51.034;5.262;2023-08-12T00:23:45;3.10;;;1.23;;
12838;SDS011;6486;51.034;5.262;2023-08-12T00:26:12;2.50;;;1.87;;
12838;SDS011;6486;51.034;5.262;2023-08-12T00:28:38;1.63;;;1.40;;
12838;SDS011;6486;51.034;5.262;2023-08-12T00:31:04;1.80;;;1.70;;
12838;SDS011;6486;51.034;5.262;2023-08-12T00:33:30;2.73;;;1.20;;
12838;SDS011;6486;51.034;5.262;2023-08-12T00:35:58;7.07;;;2.97;;
12838;SDS011;6486;51.034;5.262;2023-08-12T00:38:24;2.63;;;1.33;;
12838;SDS011;6486;51.034;5.262;2023-08-12T00:40:50;2.90;;;1.90;;
12838;SDS011;6486;51.034;5.262;2023-08-12T00:43:15;1.73;;;1.50;;
12838;SDS011;6486;51.034;5.262;2023-08-12T00:45:41;2.07;;;1.23;;
12838;SDS011;6486;51.034;5.262;2023-08-12T00:48:08;1.33;;;1.00;;
12838;SDS011;6486;51.034;5.262;2023-08-12T00:50:36;2.50;;;2.27;;
12838;SDS011;6486;51.034;5.262;2023-08-12T00:53:02;3.10;;;1.37;;
12838;SDS011;6486;51.034;5.262;2023-08-12T00:55:31;1.33;;;1.00;;
12838;SDS011;6486;51.034;5.262;2023-08-12T00:57:57;2.03;;;1.27;;
12838;SDS011;6486;51.034;5.262;2023-08-12T01:00:23;1.63;;;0.87;;
12838;SDS011;6486;51.034;5.262;2023-08-12T01:02:49;2.10;;;1.50;;
12838;SDS011;6486;51.034;5.262;2023-08-12T01:05:17;2.67;;;0.83;;
12838;SDS011;6486;51.034;5.262;2023-08-12T01:07:43;1.67;;;1.57;;
12838;SDS011;6486;51.034;5.262;2023-08-12T01:10:10;1.77;;;0.90;;
12838;SDS011;6486;51.034;5.262;2023-08-12T01:12:50;2.23;;;1.10;;
12838;SDS011;6486;51.034;5.262;2023-08-12T01:15:23;1.20;;;1.10;;
12838;SDS011;6486;51.034;5.262;2023-08-12T01:17:51;1.77;;;0.90;;
12838;SDS011;6486;51.034;5.262;2023-08-12T01:20:22;1.10;;;0.57;;
12838;SDS011;6486;51.034;5.262;2023-08-12T01:22:52;1.50;;;0.73;;
12838;SDS011;6486;51.034;5.262;2023-08-12T01:25:24;1.43;;;1.33;;
12838;SDS011;6486;51.034;5.262;2023-08-12T01:27:50;0.47;;;0.47;;
12838;SDS011;6486;51.034;5.262;2023-08-12T01:30:16;1.40;;;0.73;;
12838;SDS011;6486;51.034;5.262;2023-08-12T01:35:26;1.77;;;0.80;;
12838;SDS011;6486;51.034;5.262;2023-08-12T01:38:00;0.30;;;0.30;;
12838;SDS011;6486;51.034;5.262;2023-08-12T01:40:29;4.47;;;0.60;;
12838;SDS011;6486;51.034;5.262;2023-08-12T01:42:56;1.03;;;0.43;;
12838;SDS011;6486;51.034;5.262;2023-08-12T01:45:22;1.40;;;1.10;;
12838;SDS011;6486;51.034;5.262;2023-08-12T01:47:48;0.77;;;0.60;;
12838;SDS011;6486;51.034;5.262;2023-08-12T01:50:16;0.80;;;0.80;;
12838;SDS011;6486;51.034;5.262;2023-08-12T01:52:42;0.80;;;0.80;;
12838;SDS011;6486;51.034;5.262;2023-08-12T01:55:08;0.20;;;0.20;;
12838;SDS011;6486;51.034;5.262;2023-08-12T01:57:33;0.37;;;0.30;;
12838;SDS011;6486;51.034;5.262;2023-08-12T02:00:00;1.20;;;1.20;;
12838;SDS011;6486;51.034;5.262;2023-08-12T02:02:26;1.90;;;0.63;;
12838;SDS011;6486;51.034;5.262;2023-08-12T02:04:52;1.17;;;0.97;;
12838;SDS011;6486;51.034;5.262;2023-08-12T02:07:18;0.60;;;0.60;;
12838;SDS011;6486;51.034;5.262;2023-08-12T02:09:43;1.47;;;0.40;;
12838;SDS011;6486;51.034;5.262;2023-08-12T02:12:09;0.90;;;0.90;;
12838;SDS011;6486;51.034;5.262;2023-08-12T02:14:35;1.80;;;0.90;;
12838;SDS011;6486;51.034;5.262;2023-08-12T02:17:01;0.60;;;0.47;;
12838;SDS011;6486;51.034;5.262;2023-08-12T02:19:30;0.30;;;0.30;;
12838;SDS011;6486;51.034;5.262;2023-08-12T02:21:57;1.47;;;0.60;;
12838;SDS011;6486;51.034;5.262;2023-08-12T02:24:23;4.03;;;0.87;;
12838;SDS011;6486;51.034;5.262;2023-08-12T02:26:49;2.10;;;0.97;;
12838;SDS011;6486;51.034;5.262;2023-08-12T02:29:14;1.47;;;0.87;;
12838;SDS011;6486;51.034;5.262;2023-08-12T02:31:40;2.00;;;1.27;;
12838;SDS011;6486;51.034;5.262;2023-08-12T02:34:06;0.60;;;0.60;;
12838;SDS011;6486;51.034;5.262;2023-08-12T02:36:31;1.80;;;1.20;;
12838;SDS011;6486;51.034;5.262;2023-08-12T02:38:57;0.93;;;0.73;;
12838;SDS011;6486;51.034;5.262;2023-08-12T02:41:23;0.50;;;0.50;;
12838;SDS011;6486;51.034;5.262;2023-08-12T02:43:48;0.40;;;0.40;;
12838;SDS011;6486;51.034;5.262;2023-08-12T02:46:14;1.83;;;0.83;;
12838;SDS011;6486;51.034;5.262;2023-08-12T02:48:40;0.30;;;0.30;;
12838;SDS011;6486;51.034;5.262;2023-08-12T02:51:06;0.73;;;0.53;;
12838;SDS011;6486;51.034;5.262;2023-08-12T02:53:32;1.87;;;0.93;;
12838;SDS011;6486;51.034;5.262;2023-08-12T02:55:58;0.60;;;0.60;;
12838;SDS011;6486;51.034;5.262;2023-08-12T02:58:23;0.87;;;0.70;;
12838;SDS011;6486;51.034;5.262;2023-08-12T03:00:49;0.50;;;0.50;;
12838;SDS011;6486;51.034;5.262;2023-08-12T03:03:14;0.73;;;0.73;;
12838;SDS011;6486;51.034;5.262;2023-08-12T03:05:40;1.73;;;0.47;;
12838;SDS011;6486;51.034;5.262;2023-08-12T03:08:06;4.13;;;1.43;;
12838;SDS011;6486;51.034;5.262;2023-08-12T03:10:33;1.23;;;1.10;;
12838;SDS011;6486;51.034;5.262;2023-08-12T03:12:59;0.70;;;0.50;;
12838;SDS011;6486;51.034;5.262;2023-08-12T03:15:25;1.47;;;1.37;;
12838;SDS011;6486;51.034;5.262;2023-08-12T03:17:50;0.50;;;0.50;;
12838;SDS011;6486;51.034;5.262;2023-08-12T03:20:16;0.50;;;0.50;;
12838;SDS011;6486;51.034;5.262;2023-08-12T03:22:42;1.80;;;1.07;;
12838;SDS011;6486;51.034;5.262;2023-08-12T03:25:07;0.53;;;0.53;;
12838;SDS011;6486;51.034;5.262;2023-08-12T03:27:34;1.83;;;0.77;;
12838;SDS011;6486;51.034;5.262;2023-08-12T03:29:59;0.70;;;0.70;;
12838;SDS011;6486;51.034;5.262;2023-08-12T03:32:25;0.70;;;0.70;;
12838;SDS011;6486;51.034;5.262;2023-08-12T03:34:51;0.73;;;0.40;;
12838;SDS011;6486;51.034;5.262;2023-08-12T03:37:18;0.40;;;0.40;;
12838;SDS011;6486;51.034;5.262;2023-08-12T03:39:44;2.80;;;1.37;;
12838;SDS011;6486;51.034;5.262;2023-08-12T03:42:09;1.10;;;1.10;;
12838;SDS011;6486;51.034;5.262;2023-08-12T03:44:35;0.40;;;0.33;;
12838;SDS011;6486;51.034;5.262;2023-08-12T03:47:01;0.63;;;0.47;;
12838;SDS011;6486;51.034;5.262;2023-08-12T03:49:26;2.50;;;1.13;;
12838;SDS011;6486;51.034;5.262;2023-08-12T03:51:52;0.87;;;0.50;;
12838;SDS011;6486;51.034;5.262;2023-08-12T03:54:18;0.53;;;0.53;;
12838;SDS011;6486;51.034;5.262;2023-08-12T03:56:43;2.50;;;1.57;;
12838;SDS011;6486;51.034;5.262;2023-08-12T03:59:09;1.03;;;0.87;;
12838;SDS011;6486;51.034;5.262;2023-08-12T04:01:35;2.37;;;1.43;;
12838;SDS011;6486;51.034;5.262;2023-08-12T04:04:01;3.17;;;0.90;;
12838;SDS011;6486;51.034;5.262;2023-08-12T04:06:27;1.60;;;0.77;;
12838;SDS011;6486;51.034;5.262;2023-08-12T04:08:52;0.97;;;0.97;;
12838;SDS011;6486;51.034;5.262;2023-08-12T04:11:18;1.87;;;0.80;;
12838;SDS011;6486;51.034;5.262;2023-08-12T04:13:44;0.53;;;0.53;;
12838;SDS011;6486;51.034;5.262;2023-08-12T04:16:09;1.17;;;1.07;;
12838;SDS011;6486;51.034;5.262;2023-08-12T04:18:35;1.07;;;1.00;;
12838;SDS011;6486;51.034;5.262;2023-08-12T04:21:01;2.67;;;1.30;;
12838;SDS011;6486;51.034;5.262;2023-08-12T04:23:27;1.20;;;0.83;;
12838;SDS011;6486;51.034;5.262;2023-08-12T04:25:53;1.53;;;0.90;;
12838;SDS011;6486;51.034;5.262;2023-08-12T04:28:21;2.40;;;1.77;;
12838;SDS011;6486;51.034;5.262;2023-08-12T04:30:47;2.80;;;1.37;;
12838;SDS011;6486;51.034;5.262;2023-08-12T04:33:13;1.87;;;1.77;;
12838;SDS011;6486;51.034;5.262;2023-08-12T04:35:40;1.40;;;1.13;;
12838;SDS011;6486;51.034;5.262;2023-08-12T04:38:06;1.37;;;1.27;;
12838;SDS011;6486;51.034;5.262;2023-08-12T04:40:32;1.63;;;1.37;;
12838;SDS011;6486;51.034;5.262;2023-08-12T04:43:00;2.43;;;1.10;;
12838;SDS011;6486;51.034;5.262;2023-08-12T04:45:27;1.77;;;1.20;;
12838;SDS011;6486;51.034;5.262;2023-08-12T04:47:52;2.07;;;0.70;;
12838;SDS011;6486;51.034;5.262;2023-08-12T04:50:19;2.57;;;1.17;;
12838;SDS011;6486;51.034;5.262;2023-08-12T04:52:44;1.33;;;1.23;;
12838;SDS011;6486;51.034;5.262;2023-08-12T04:55:11;5.40;;;1.70;;
12838;SDS011;6486;51.034;5.262;2023-08-12T04:57:37;2.57;;;1.10;;
12838;SDS011;6486;51.034;5.262;2023-08-12T05:00:03;1.20;;;1.07;;
12838;SDS011;6486;51.034;5.262;2023-08-12T05:02:30;1.60;;;1.50;;
12838;SDS011;6486;51.034;5.262;2023-08-12T05:04:55;1.00;;;0.97;;
12838;SDS011;6486;51.034;5.262;2023-08-12T05:07:21;2.90;;;1.47;;
12838;SDS011;6486;51.034;5.262;2023-08-12T05:09:47;1.20;;;1.10;;
12838;SDS011;6486;51.034;5.262;2023-08-12T05:12:13;1.80;;;1.53;;
12838;SDS011;6486;51.034;5.262;2023-08-12T05:14:39;2.13;;;1.57;;
12838;SDS011;6486;51.034;5.262;2023-08-12T05:17:05;2.87;;;1.73;;
12838;SDS011;6486;51.034;5.262;2023-08-12T05:19:31;1.83;;;1.63;;
12838;SDS011;6486;51.034;5.262;2023-08-12T05:21:57;3.33;;;1.73;;
12838;SDS011;6486;51.034;5.262;2023-08-12T05:24:23;1.27;;;0.83;;
12838;SDS011;6486;51.034;5.262;2023-08-12T05:26:48;3.73;;;1.60;;
12838;SDS011;6486;51.034;5.262;2023-08-12T05:29:14;1.10;;;1.00;;
12838;SDS011;6486;51.034;5.262;2023-08-12T05:31:40;2.23;;;1.73;;
12838;SDS011;6486;51.034;5.262;2023-08-12T05:34:05;5.17;;;1.43;;
12838;SDS011;6486;51.034;5.262;2023-08-12T05:36:31;2.43;;;1.17;;
12838;SDS011;6486;51.034;5.262;2023-08-12T05:38:57;1.37;;;0.90;;
12838;SDS011;6486;51.034;5.262;2023-08-12T05:41:23;1.50;;;0.93;;
12838;SDS011;6486;51.034;5.262;2023-08-12T05:43:49;2.77;;;0.83;;
12838;SDS011;6486;51.034;5.262;2023-08-12T05:46:15;1.17;;;1.07;;
12838;SDS011;6486;51.034;5.262;2023-08-12T05:48:41;1.57;;;1.10;;
12838;SDS011;6486;51.034;5.262;2023-08-12T05:51:06;1.73;;;1.13;;
12838;SDS011;6486;51.034;5.262;2023-08-12T05:53:32;1.53;;;1.40;;
12838;SDS011;6486;51.034;5.262;2023-08-12T05:55:58;1.00;;;0.97;;
12838;SDS011;6486;51.034;5.262;2023-08-12T05:58:24;1.00;;;1.00;;
12838;SDS011;6486;51.034;5.262;2023-08-12T06:00:49;1.40;;;1.30;;
12838;SDS011;6486;51.034;5.262;2023-08-12T06:03:15;0.87;;;0.87;;
12838;SDS011;6486;51.034;5.262;2023-08-12T06:05:42;0.60;;;0.60;;
12838;SDS011;6486;51.034;5.262;2023-08-12T06:08:10;0.87;;;0.87;;
12838;SDS011;6486;51.034;5.262;2023-08-12T06:10:36;2.90;;;0.93;;
12838;SDS011;6486;51.034;5.262;2023-08-12T06:13:01;1.10;;;1.00;;
12838;SDS011;6486;51.034;5.262;2023-08-12T06:15:27;0.93;;;0.83;;
12838;SDS011;6486;51.034;5.262;2023-08-12T06:17:53;0.70;;;0.70;;
12838;SDS011;6486;51.034;5.262;2023-08-12T06:20:19;1.40;;;0.97;;
12838;SDS011;6486;51.034;5.262;2023-08-12T06:22:44;1.23;;;0.80;;
12838;SDS011;6486;51.034;5.262;2023-08-12T06:25:10;0.83;;;0.83;;
12838;SDS011;6486;51.034;5.262;2023-08-12T06:27:36;1.07;;;0.73;;
12838;SDS011;6486;51.034;5.262;2023-08-12T06:30:01;3.63;;;1.23;;
12838;SDS011;6486;51.034;5.262;2023-08-12T06:32:27;1.33;;;0.90;;
12838;SDS011;6486;51.034;5.262;2023-08-12T06:34:53;1.53;;;0.90;;
12838;SDS011;6486;51.034;5.262;2023-08-12T06:37:18;2.03;;;0.87;;
12838;SDS011;6486;51.034;5.262;2023-08-12T06:39:44;1.33;;;1.23;;
12838;SDS011;6486;51.034;5.262;2023-08-12T06:42:10;2.97;;;0.67;;
12838;SDS011;6486;51.034;5.262;2023-08-12T06:44:35;1.10;;;1.10;;
12838;SDS011;6486;51.034;5.262;2023-08-12T06:47:01;0.70;;;0.60;;
12838;SDS011;6486;51.034;5.262;2023-08-12T06:49:26;1.33;;;1.27;;
12838;SDS011;6486;51.034;5.262;2023-08-12T06:51:52;0.77;;;0.70;;
12838;SDS011;6486;51.034;5.262;2023-08-12T06:54:18;1.27;;;0.60;;
12838;SDS011;6486;51.034;5.262;2023-08-12T06:56:43;0.67;;;0.67;;
12838;SDS011;6486;51.034;5.262;2023-08-12T06:59:09;3.13;;;1.00;;
12838;SDS011;6486;51.034;5.262;2023-08-12T07:01:36;0.87;;;0.80;;
12838;SDS011;6486;51.034;5.262;2023-08-12T07:04:01;1.07;;;0.67;;
12838;SDS011;6486;51.034;5.262;2023-08-12T07:06:27;2.00;;;0.97;;
12838;SDS011;6486;51.034;5.262;2023-08-12T07:08:52;2.20;;;1.10;;
12838;SDS011;6486;51.034;5.262;2023-08-12T07:11:18;0.70;;;0.40;;
12838;SDS011;6486;51.034;5.262;2023-08-12T07:13:44;0.60;;;0.60;;
12838;SDS011;6486;51.034;5.262;2023-08-12T07:16:11;0.80;;;0.80;;
12838;SDS011;6486;51.034;5.262;2023-08-12T07:18:37;1.13;;;1.03;;
12838;SDS011;6486;51.034;5.262;2023-08-12T07:21:02;0.63;;;0.60;;
12838;SDS011;6486;51.034;5.262;2023-08-12T07:23:28;0.30;;;0.30;;
12838;SDS011;6486;51.034;5.262;2023-08-12T07:25:54;0.80;;;0.60;;
12838;SDS011;6486;51.034;5.262;2023-08-12T07:28:20;0.53;;;0.53;;
12838;SDS011;6486;51.034;5.262;2023-08-12T07:30:46;0.43;;;0.40;;
12838;SDS011;6486;51.034;5.262;2023-08-12T07:33:13;0.63;;;0.40;;
12838;SDS011;6486;51.034;5.262;2023-08-12T07:35:39;0.67;;;0.60;;
12838;SDS011;6486;51.034;5.262;2023-08-12T07:38:04;0.33;;;0.27;;
12838;SDS011;6486;51.034;5.262;2023-08-12T07:40:30;0.67;;;0.67;;
12838;SDS011;6486;51.034;5.262;2023-08-12T07:42:56;2.37;;;0.67;;
12838;SDS011;6486;51.034;5.262;2023-08-12T07:45:22;0.60;;;0.53;;
12838;SDS011;6486;51.034;5.262;2023-08-12T07:47:48;1.90;;;0.33;;
12838;SDS011;6486;51.034;5.262;2023-08-12T07:50:15;0.20;;;0.20;;
12838;SDS011;6486;51.034;5.262;2023-08-12T07:52:40;0.60;;;0.33;;
12838;SDS011;6486;51.034;5.262;2023-08-12T07:55:06;1.00;;;0.97;;
12838;SDS011;6486;51.034;5.262;2023-08-12T07:57:32;0.20;;;0.20;;
12838;SDS011;6486;51.034;5.262;2023-08-12T07:59:58;0.57;;;0.20;;
12838;SDS011;6486;51.034;5.262;2023-08-12T08:02:23;0.57;;;0.23;;
12838;SDS011;6486;51.034;5.262;2023-08-12T08:04:49;0.40;;;0.40;;
12838;SDS011;6486;51.034;5.262;2023-08-12T08:07:18;0.10;;;0.10;;
12838;SDS011;6486;51.034;5.262;2023-08-12T08:09:43;0.20;;;0.20;;
12838;SDS011;6486;51.034;5.262;2023-08-12T08:12:09;0.60;;;0.60;;
12838;SDS011;6486;51.034;5.262;2023-08-12T08:14:36;0.13;;;0.13;;
12838;SDS011;6486;51.034;5.262;2023-08-12T08:17:02;0.50;;;0.20;;
12838;SDS011;6486;51.034;5.262;2023-08-12T08:19:28;0.47;;;0.10;;
12838;SDS011;6486;51.034;5.262;2023-08-12T08:21:54;0.10;;;0.10;;
12838;SDS011;6486;51.034;5.262;2023-08-12T08:24:20;0.17;;;0.10;;
12838;SDS011;6486;51.034;5.262;2023-08-12T08:26:46;2.40;;;0.13;;
12838;SDS011;6486;51.034;5.262;2023-08-12T08:29:12;0.10;;;0.10;;
12838;SDS011;6486;51.034;5.262;2023-08-12T08:31:38;0.00;;;0.00;;
12838;SDS011;6486;51.034;5.262;2023-08-12T08:34:04;0.00;;;0.00;;
12838;SDS011;6486;51.034;5.262;2023-08-12T08:36:29;0.00;;;0.00;;
12838;SDS011;6486;51.034;5.262;2023-08-12T08:38:55;0.10;;;0.10;;
12838;SDS011;6486;51.034;5.262;2023-08-12T08:41:21;2.67;;;0.40;;
12838;SDS011;6486;51.034;5.262;2023-08-12T08:43:48;0.70;;;0.67;;
12838;SDS011;6486;51.034;5.262;2023-08-12T08:46:14;0.10;;;0.10;;
12838;SDS011;6486;51.034;5.262;2023-08-12T08:48:43;0.77;;;0.03;;
12838;SDS011;6486;51.034;5.262;2023-08-12T08:51:09;0.23;;;0.10;;
12838;SDS011;6486;51.034;5.262;2023-08-12T08:53:40;0.60;;;0.60;;
12838;SDS011;6486;51.034;5.262;2023-08-12T08:56:06;0.97;;;0.40;;
12838;SDS011;6486;51.034;5.262;2023-08-12T08:58:33;0.07;;;0.00;;
12838;SDS011;6486;51.034;5.262;2023-08-12T09:00:59;0.37;;;0.37;;
12838;SDS011;6486;51.034;5.262;2023-08-12T09:03:25;0.50;;;0.10;;
12838;SDS011;6486;51.034;5.262;2023-08-12T09:05:51;0.10;;;0.10;;
12838;SDS011;6486;51.034;5.262;2023-08-12T09:08:20;0.00;;;0.00;;
12838;SDS011;6486;51.034;5.262;2023-08-12T09:10:47;0.10;;;0.10;;
12838;SDS011;6486;51.034;5.262;2023-08-12T09:13:13;0.00;;;0.00;;
12838;SDS011;6486;51.034;5.262;2023-08-12T09:15:40;0.00;;;0.00;;
12838;SDS011;6486;51.034;5.262;2023-08-12T09:18:06;0.07;;;0.00;;
12838;SDS011;6486;51.034;5.262;2023-08-12T09:20:32;0.50;;;0.50;;
12838;SDS011;6486;51.034;5.262;2023-08-12T09:22:59;0.10;;;0.10;;
12838;SDS011;6486;51.034;5.262;2023-08-12T09:25:31;0.10;;;0.10;;
12838;SDS011;6486;51.034;5.262;2023-08-12T09:28:00;0.30;;;0.20;;
12838;SDS011;6486;51.034;5.262;2023-08-12T09:30:30;0.30;;;0.30;;
12838;SDS011;6486;51.034;5.262;2023-08-12T09:32:59;0.33;;;0.33;;
12838;SDS011;6486;51.034;5.262;2023-08-12T09:35:31;0.40;;;0.40;;
12838;SDS011;6486;51.034;5.262;2023-08-12T09:37:58;0.30;;;0.27;;
12838;SDS011;6486;51.034;5.262;2023-08-12T09:40:25;0.40;;;0.30;;
12838;SDS011;6486;51.034;5.262;2023-08-12T09:42:51;0.20;;;0.20;;
12838;SDS011;6486;51.034;5.262;2023-08-12T09:45:17;0.20;;;0.20;;
12838;SDS011;6486;51.034;5.262;2023-08-12T09:47:45;0.50;;;0.50;;
12838;SDS011;6486;51.034;5.262;2023-08-12T09:50:11;1.80;;;0.30;;
12838;SDS011;6486;51.034;5.262;2023-08-12T09:52:38;0.90;;;0.30;;
12838;SDS011;6486;51.034;5.262;2023-08-12T09:55:04;0.30;;;0.13;;
12838;SDS011;6486;51.034;5.262;2023-08-12T09:57:33;0.77;;;0.30;;
12838;SDS011;6486;51.034;5.262;2023-08-12T10:00:01;0.20;;;0.20;;
12838;SDS011;6486;51.034;5.262;2023-08-12T10:02:28;0.10;;;0.10;;
12838;SDS011;6486;51.034;5.262;2023-08-12T10:04:56;0.27;;;0.10;;
12838;SDS011;6486;51.034;5.262;2023-08-12T10:07:23;0.10;;;0.10;;
12838;SDS011;6486;51.034;5.262;2023-08-12T10:09:48;0.20;;;0.20;;
12838;SDS011;6486;51.034;5.262;2023-08-12T10:12:14;1.63;;;0.73;;
12838;SDS011;6486;51.034;5.262;2023-08-12T10:14:40;0.30;;;0.20;;
12838;SDS011;6486;51.034;5.262;2023-08-12T10:17:07;0.30;;;0.20;;
12838;SDS011;6486;51.034;5.262;2023-08-12T10:19:35;0.40;;;0.40;;
12838;SDS011;6486;51.034;5.262;2023-08-12T10:22:02;0.87;;;0.50;;
12838;SDS011;6486;51.034;5.262;2023-08-12T10:24:28;0.63;;;0.40;;
12838;SDS011;6486;51.034;5.262;2023-08-12T10:26:55;0.47;;;0.40;;
12838;SDS011;6486;51.034;5.262;2023-08-12T10:29:22;0.77;;;0.60;;
12838;SDS011;6486;51.034;5.262;2023-08-12T10:31:49;1.70;;;1.00;;
12838;SDS011;6486;51.034;5.262;2023-08-12T10:34:22;0.53;;;0.50;;
12838;SDS011;6486;51.034;5.262;2023-08-12T10:36:55;1.13;;;0.27;;
12838;SDS011;6486;51.034;5.262;2023-08-12T10:39:28;0.50;;;0.30;;
12838;SDS011;6486;51.034;5.262;2023-08-12T10:41:56;0.30;;;0.30;;
12838;SDS011;6486;51.034;5.262;2023-08-12T10:44:26;0.57;;;0.40;;
12838;SDS011;6486;51.034;5.262;2023-08-12T10:47:05;0.47;;;0.33;;
12838;SDS011;6486;51.034;5.262;2023-08-12T10:49:37;0.77;;;0.20;;
12838;SDS011;6486;51.034;5.262;2023-08-12T10:52:07;0.10;;;0.10;;
12838;SDS011;6486;51.034;5.262;2023-08-12T10:54:51;0.20;;;0.20;;
12838;SDS011;6486;51.034;5.262;2023-08-12T10:57:18;0.20;;;0.20;;
12838;SDS011;6486;51.034;5.262;2023-08-12T10:59:59;0.57;;;0.20;;
12838;SDS011;6486;51.034;5.262;2023-08-12T11:02:28;0.83;;;0.83;;
12838;SDS011;6486;51.034;5.262;2023-08-12T11:05:01;0.73;;;0.23;;
12838;SDS011;6486;51.034;5.262;2023-08-12T11:10:09;0.50;;;0.20;;
12838;SDS011;6486;51.034;5.262;2023-08-12T11:12:38;0.27;;;0.20;;
12838;SDS011;6486;51.034;5.262;2023-08-12T11:15:04;0.30;;;0.20;;
12838;SDS011;6486;51.034;5.262;2023-08-12T11:17:32;0.50;;;0.50;;
12838;SDS011;6486;51.034;5.262;2023-08-12T11:20:02;1.40;;;0.50;;
12838;SDS011;6486;51.034;5.262;2023-08-12T11:22:30;0.47;;;0.40;;
12838;SDS011;6486;51.034;5.262;2023-08-12T11:24:57;0.20;;;0.20;;
12838;SDS011;6486;51.034;5.262;2023-08-12T11:27:23;0.17;;;0.17;;
12838;SDS011;6486;51.034;5.262;2023-08-12T11:29:49;0.30;;;0.27;;
12838;SDS011;6486;51.034;5.262;2023-08-12T11:32:16;0.30;;;0.20;;
12838;SDS011;6486;51.034;5.262;2023-08-12T11:34:42;0.70;;;0.27;;
12838;SDS011;6486;51.034;5.262;2023-08-12T11:37:08;0.13;;;0.13;;
12838;SDS011;6486;51.034;5.262;2023-08-12T11:39:34;0.47;;;0.30;;
12838;SDS011;6486;51.034;5.262;2023-08-12T11:42:00;0.17;;;0.17;;
12838;SDS011;6486;51.034;5.262;2023-08-12T11:44:26;0.27;;;0.27;;
12838;SDS011;6486;51.034;5.262;2023-08-12T11:46:51;0.40;;;0.40;;
12838;SDS011;6486;51.034;5.262;2023-08-12T11:49:17;0.50;;;0.20;;
12838;SDS011;6486;51.034;5.262;2023-08-12T11:51:43;0.40;;;0.40;;
12838;SDS011;6486;51.034;5.262;2023-08-12T11:54:12;0.23;;;0.23;;
12838;SDS011;6486;51.034;5.262;2023-08-12T11:56:38;0.77;;;0.73;;
12838;SDS011;6486;51.034;5.262;2023-08-12T11:59:04;0.53;;;0.30;;
12838;SDS011;6486;51.034;5.262;2023-08-12T12:01:30;0.20;;;0.20;;
12838;SDS011;6486;51.034;5.262;2023-08-12T12:03:59;0.40;;;0.20;;
12838;SDS011;6486;51.034;5.262;2023-08-12T12:06:30;0.40;;;0.40;;
12838;SDS011;6486;51.034;5.262;2023-08-12T12:09:00;0.53;;;0.43;;
12838;SDS011;6486;51.034;5.262;2023-08-12T12:11:29;0.20;;;0.20;;
12838;SDS011;6486;51.034;5.262;2023-08-12T12:13:55;0.70;;;0.50;;
12838;SDS011;6486;51.034;5.262;2023-08-12T12:16:21;0.20;;;0.20;;
12838;SDS011;6486;51.034;5.262;2023-08-12T12:18:46;0.37;;;0.37;;
12838;SDS011;6486;51.034;5.262;2023-08-12T12:21:12;2.60;;;0.70;;
12838;SDS011;6486;51.034;5.262;2023-08-12T12:23:45;2.00;;;0.53;;
12838;SDS011;6486;51.034;5.262;2023-08-12T12:26:11;0.40;;;0.30;;
12838;SDS011;6486;51.034;5.262;2023-08-12T12:28:37;0.30;;;0.30;;
12838;SDS011;6486;51.034;5.262;2023-08-12T12:31:03;1.10;;;0.37;;
12838;SDS011;6486;51.034;5.262;2023-08-12T12:33:29;0.20;;;0.20;;
12838;SDS011;6486;51.034;5.262;2023-08-12T12:35:54;1.17;;;0.60;;
12838;SDS011;6486;51.034;5.262;2023-08-12T12:38:20;0.40;;;0.20;;
12838;SDS011;6486;51.034;5.262;2023-08-12T12:40:46;0.67;;;0.43;;
12838;SDS011;6486;51.034;5.262;2023-08-12T12:43:12;0.30;;;0.30;;
12838;SDS011;6486;51.034;5.262;2023-08-12T12:45:37;0.93;;;0.43;;
12838;SDS011;6486;51.034;5.262;2023-08-12T12:48:03;1.07;;;0.40;;
12838;SDS011;6486;51.034;5.262;2023-08-12T12:50:29;0.80;;;0.80;;
12838;SDS011;6486;51.034;5.262;2023-08-12T12:52:55;0.63;;;0.37;;
12838;SDS011;6486;51.034;5.262;2023-08-12T12:55:20;0.60;;;0.40;;
12838;SDS011;6486;51.034;5.262;2023-08-12T12:57:46;0.43;;;0.40;;
12838;SDS011;6486;51.034;5.262;2023-08-12T13:00:12;0.33;;;0.33;;
12838;SDS011;6486;51.034;5.262;2023-08-12T13:02:38;0.93;;;0.40;;
12838;SDS011;6486;51.034;5.262;2023-08-12T13:05:03;0.33;;;0.20;;
12838;SDS011;6486;51.034;5.262;2023-08-12T13:07:29;3.50;;;0.43;;
12838;SDS011;6486;51.034;5.262;2023-08-12T13:09:55;0.50;;;0.50;;
12838;SDS011;6486;51.034;5.262;2023-08-12T13:12:20;0.30;;;0.30;;
12838;SDS011;6486;51.034;5.262;2023-08-12T13:14:46;4.27;;;0.30;;
12838;SDS011;6486;51.034;5.262;2023-08-12T13:17:12;0.50;;;0.50;;
12838;SDS011;6486;51.034;5.262;2023-08-12T13:19:37;0.30;;;0.30;;
12838;SDS011;6486;51.034;5.262;2023-08-12T13:22:03;0.67;;;0.40;;
12838;SDS011;6486;51.034;5.262;2023-08-12T13:24:29;0.87;;;0.30;;
12838;SDS011;6486;51.034;5.262;2023-08-12T13:26:55;0.33;;;0.23;;
12838;SDS011;6486;51.034;5.262;2023-08-12T13:29:20;0.40;;;0.40;;
12838;SDS011;6486;51.034;5.262;2023-08-12T13:31:46;0.30;;;0.30;;
12838;SDS011;6486;51.034;5.262;2023-08-12T13:34:11;0.83;;;0.50;;
12838;SDS011;6486;51.034;5.262;2023-08-12T13:36:37;0.20;;;0.20;;
12838;SDS011;6486;51.034;5.262;2023-08-12T13:39:03;1.23;;;0.33;;
12838;SDS011;6486;51.034;5.262;2023-08-12T13:41:29;2.13;;;0.50;;
12838;SDS011;6486;51.034;5.262;2023-08-12T13:43:54;0.20;;;0.20;;
12838;SDS011;6486;51.034;5.262;2023-08-12T13:46:20;0.43;;;0.43;;
12838;SDS011;6486;51.034;5.262;2023-08-12T13:48:45;0.70;;;0.27;;
12838;SDS011;6486;51.034;5.262;2023-08-12T13:51:11;0.43;;;0.43;;
12838;SDS011;6486;51.034;5.262;2023-08-12T13:53:37;0.67;;;0.40;;
12838;SDS011;6486;51.034;5.262;2023-08-12T13:56:03;1.83;;;0.50;;
12838;SDS011;6486;51.034;5.262;2023-08-12T13:58:29;2.03;;;0.97;;
12838;SDS011;6486;51.034;5.262;2023-08-12T14:00:54;0.50;;;0.50;;
12838;SDS011;6486;51.034;5.262;2023-08-12T14:03:20;0.27;;;0.27;;
12838;SDS011;6486;51.034;5.262;2023-08-12T14:05:45;0.97;;;0.50;;
12838;SDS011;6486;51.034;5.262;2023-08-12T14:08:11;2.00;;;0.50;;
12838;SDS011;6486;51.034;5.262;2023-08-12T14:10:37;0.70;;;0.30;;
12838;SDS011;6486;51.034;5.262;2023-08-12T14:13:02;0.50;;;0.50;;
12838;SDS011;6486;51.034;5.262;2023-08-12T14:15:28;0.83;;;0.40;;
12838;SDS011;6486;51.034;5.262;2023-08-12T14:17:54;0.67;;;0.50;;
12838;SDS011;6486;51.034;5.262;2023-08-12T14:20:19;1.20;;;0.30;;
12838;SDS011;6486;51.034;5.262;2023-08-12T14:22:45;0.73;;;0.30;;
12838;SDS011;6486;51.034;5.262;2023-08-12T14:25:11;0.10;;;0.10;;
12838;SDS011;6486;51.034;5.262;2023-08-12T14:27:36;0.20;;;0.20;;
12838;SDS011;6486;51.034;5.262;2023-08-12T14:30:02;0.63;;;0.63;;
12838;SDS011;6486;51.034;5.262;2023-08-12T14:32:28;0.50;;;0.50;;
12838;SDS011;6486;51.034;5.262;2023-08-12T14:34:54;0.90;;;0.70;;
12838;SDS011;6486;51.034;5.262;2023-08-12T14:37:19;0.23;;;0.17;;
12838;SDS011;6486;51.034;5.262;2023-08-12T14:39:45;1.40;;;0.40;;
12838;SDS011;6486;51.034;5.262;2023-08-12T14:42:11;0.43;;;0.20;;
12838;SDS011;6486;51.034;5.262;2023-08-12T14:44:37;0.30;;;0.20;;
12838;SDS011;6486;51.034;5.262;2023-08-12T14:47:02;0.57;;;0.57;;
12838;SDS011;6486;51.034;5.262;2023-08-12T14:49:29;0.37;;;0.37;;
12838;SDS011;6486;51.034;5.262;2023-08-12T14:51:54;0.30;;;0.30;;
12838;SDS011;6486;51.034;5.262;2023-08-12T14:54:22;6.10;;;0.80;;
12838;SDS011;6486;51.034;5.262;2023-08-12T14:56:47;0.20;;;0.20;;
12838;SDS011;6486;51.034;5.262;2023-08-12T14:59:13;1.03;;;0.40;;
12838;SDS011;6486;51.034;5.262;2023-08-12T15:01:39;0.37;;;0.37;;